Latest Weather Observations for Kalumburu

IDW60801

Issued at 1:03 pm WST Monday 24 April 2017 (issued every 30 minutes, with the page automatically refreshed every 10 minutes)

About weather observations | Map of weather stations | Latest weather observations for WA | Other Formats
Station Details ID: 001019 Name: KALUMBURU Lat: -14.30 Lon: 126.65 Height: 23.0 m
Data from the previous 72 hours. | See also: Recent months at Kalumburu
Date/Time
WST
Temp
°C
App
Temp
°C
Dew
Point
°C
Rel
Hum
%
Delta-T
°C
Wind Press
QNH
hPa
Press
MSL
hPa
Rain since
9am
mm
Dir  Spd
km/h
Gust
km/h
Spd
kts
Gust
kts
24/01:00pm 35.0 35.8 17.2 34 11.5 SE 9 17 5 9 1009.6 1009.4 0.0
24/12:30pm 34.7 35.5 17.4 35 11.1 E 9 17 5 9 1009.9 1009.7 0.0
24/12:00pm 33.8 35.2 19.5 43 9.5 SSE 11 19 6 10 1010.5 1010.3 0.0
24/11:30am 32.9 35.0 19.0 43 9.1 S 6 9 3 5 1011.2 1011.0 0.0
24/11:00am 33.6 36.2 20.4 46 8.8 WSW 7 11 4 6 1011.8 1011.6 0.0
24/10:30am 33.1 35.6 20.3 47 8.5 SSW 7 11 4 6 1012.3 1012.1 0.0
24/10:00am 32.6 35.7 21.5 52 7.5 S 7 13 4 7 1012.8 1012.6 0.0
24/09:30am 31.5 34.4 21.1 54 7.0 SW 7 11 4 6 1013.2 1013.0 0.0
24/09:00am 30.8 34.3 22.1 59 5.9 SSW 7 11 4 6 1013.4 1013.2 0.0
24/08:30am 30.2 34.1 22.9 65 5.0 S 7 13 4 7 1013.4 1013.2 0.0
24/08:00am 28.8 32.3 22.8 70 4.1 SSE 9 15 5 8 1013.3 1013.1 0.0
24/07:30am 27.9 31.9 23.1 75 3.3 S 7 13 4 7 1013.3 1013.1 0.0
24/07:00am 26.5 30.6 23.0 81 2.4 S 6 9 3 5 1013.2 1013.0 0.0
24/06:30am 25.1 30.5 23.2 89 1.3 CALM 0 6 0 3 1012.8 1012.6 0.0
24/06:00am 23.5 28.0 21.6 89 1.3 CALM 0 4 0 2 1012.4 1012.2 0.0
24/05:30am 23.5 28.0 21.6 89 1.3 CALM 0 0 0 0 1012.1 1011.9 0.0
24/05:00am 23.6 27.7 21.5 88 1.4 SSE 2 7 1 4 1011.8 1011.6 0.0
24/04:30am 24.2 27.9 22.3 89 1.3 SSE 6 9 3 5 1011.6 1011.4 0.0
24/04:00am 23.4 27.5 21.5 89 1.3 S 2 9 1 5 1011.4 1011.2 0.0
24/03:30am 23.9 28.4 22.2 90 1.1 SSW 2 7 1 4 1011.1 1010.9 0.0
24/03:00am 23.7 28.4 22.0 90 1.1 CALM 0 0 0 0 1011.0 1010.8 0.0
24/02:30am 23.5 28.0 21.6 89 1.3 CALM 0 0 0 0 1010.8 1010.6 0.0
24/02:00am 23.6 28.2 21.7 89 1.3 CALM 0 0 0 0 1010.9 1010.7 0.0
24/01:30am 23.9 28.6 22.0 89 1.3 CALM 0 0 0 0 1011.3 1011.1 0.0
24/01:00am 24.0 28.7 21.9 88 1.4 CALM 0 0 0 0 1011.6 1011.4 0.0
24/12:30am 24.1 28.9 22.2 89 1.3 CALM 0 0 0 0 1011.9 1011.7 0.0
24/12:00am 24.0 28.6 21.7 87 1.5 CALM 0 0 0 0 1012.3 1012.1 0.0
 
Date/Time
WST
Temp
°C
App
Temp
°C
Dew
Point
°C
Rel
Hum
%
Delta-T
°C
Wind Press
QNH
hPa
Press
MSL
hPa
Rain since
9am
mm
Dir  Spd
km/h
Gust
km/h
Spd
kts
Gust
kts
23/11:30pm 24.3 29.1 22.2 88 1.4 CALM 0 0 0 0 1012.7 1012.5 0.0
23/11:00pm 24.0 28.6 21.7 87 1.5 CALM 0 0 0 0 1012.7 1012.5 0.0
23/10:30pm 24.3 28.8 21.6 85 1.8 CALM 0 2 0 1 1012.9 1012.7 0.0
23/10:00pm 24.8 29.6 22.1 85 1.8 CALM 0 0 0 0 1012.8 1012.6 0.0
23/09:30pm 25.0 29.6 21.7 82 2.2 CALM 0 0 0 0 1012.9 1012.7 0.0
23/09:00pm 25.7 30.2 22.2 81 2.3 ENE 2 6 1 3 1013.0 1012.8 0.0
23/08:30pm 26.0 29.3 21.4 76 3.1 NE 6 7 3 4 1013.0 1012.8 0.0
23/08:00pm 26.2 29.4 21.6 76 3.1 NNE 7 9 4 5 1012.8 1012.6 0.0
23/07:30pm 26.2 30.2 22.1 78 2.7 NE 4 9 2 5 1012.5 1012.3 0.0
23/07:00pm 26.9 31.9 22.5 77 3.0 CALM 0 4 0 2 1012.1 1011.9 0.0
23/06:30pm 28.7 32.5 22.7 70 4.1 NNW 7 11 4 6 1011.2 1011.0 0.0
23/06:00pm 29.0 32.0 22.0 66 4.7 NNW 9 13 5 7 1010.9 1010.7 0.0
23/05:30pm 29.5 32.8 22.5 66 4.8 N 9 15 5 8 1010.7 1010.5 0.0
23/05:00pm 30.5 33.0 22.4 62 5.5 N 13 17 7 9 1010.3 1010.1 0.0
23/04:30pm 31.9 33.6 21.7 54 6.9 NNW 15 20 8 11 1009.9 1009.7 0.0
23/04:00pm 32.6 34.0 21.8 53 7.3 N 17 24 9 13 1009.6 1009.4 0.0
23/03:30pm 33.4 34.6 21.5 49 8.1 N 17 24 9 13 1009.2 1009.0 0.0
23/03:00pm 34.0 35.6 21.4 47 8.6 NNE 15 24 8 13 1009.0 1008.8 0.0
23/02:30pm 33.4 34.3 20.9 48 8.4 N 17 28 9 15 1008.9 1008.7 0.0
23/02:00pm 34.9 37.9 21.9 46 8.9 NNE 9 17 5 9 1008.8 1008.6 0.0
23/01:30pm 35.3 37.1 20.4 41 10.0 ENE 11 20 6 11 1009.1 1008.9 0.0
23/01:00pm 34.9 36.9 20.8 43 9.5 ENE 11 19 6 10 1009.5 1009.3 0.0
23/12:30pm 35.6 37.4 20.3 40 10.3 NE 11 17 6 9 1009.9 1009.7 0.0
23/12:00pm 33.7 35.4 19.4 43 9.4 NE 9 22 5 12 1010.2 1010.0 0.0
23/11:30am 34.3 36.6 20.7 45 9.1 NNE 9 20 5 11 1010.8 1010.6 0.0
23/11:00am 33.7 36.1 20.1 44 9.1 SSW 7 13 4 7 1011.4 1011.2 0.0
23/10:30am 32.8 35.2 20.0 47 8.5 NW 7 13 4 7 1011.9 1011.7 0.0
23/10:00am 33.0 36.0 20.9 49 8.1 N 6 9 3 5 1012.4 1012.2 0.0
23/09:30am 32.6 36.2 22.1 54 7.2 SSW 6 11 3 6 1012.6 1012.4 0.0
23/09:00am 31.3 35.5 23.4 63 5.5 SSW 7 11 4 6 1012.8 1012.6 0.2
23/08:30am 30.3 34.4 23.2 65 4.9 S 7 11 4 6 1012.7 1012.5 0.2
23/08:00am 29.6 33.8 23.5 69 4.2 SSE 7 9 4 5 1012.6 1012.4 0.2
23/07:30am 28.2 32.7 24.0 78 2.9 S 7 11 4 6 1012.3 1012.1 0.2
23/07:00am 27.2 33.2 24.3 84 2.0 CALM 0 0 0 0 1012.0 1011.8 0.2
23/06:30am 24.9 30.3 23.3 91 1.1 CALM 0 0 0 0 1011.7 1011.5 0.2
23/06:00am 23.2 27.7 21.5 90 1.1 CALM 0 0 0 0 1011.2 1011.0 0.2
23/05:30am 23.1 27.5 21.4 90 1.1 CALM 0 0 0 0 1010.7 1010.5 0.2
23/05:00am 23.2 27.7 21.5 90 1.1 CALM 0 0 0 0 1010.4 1010.2 0.2
23/04:30am 23.4 27.6 21.7 90 1.1 E 2 7 1 4 1010.3 1010.1 0.2
23/04:00am 23.3 27.7 21.4 89 1.3 CALM 0 0 0 0 1010.5 1010.3 0.2
23/03:30am 23.6 28.2 21.7 89 1.3 CALM 0 0 0 0 1010.5 1010.3 0.2
23/03:00am 23.7 28.3 21.8 89 1.3 CALM 0 0 0 0 1010.7 1010.5 0.2
23/02:30am 23.7 28.3 21.8 89 1.3 CALM 0 0 0 0 1010.8 1010.6 0.2
23/02:00am 24.0 28.8 22.1 89 1.3 CALM 0 0 0 0 1010.9 1010.7 0.2
23/01:30am 23.9 28.6 22.0 89 1.3 CALM 0 0 0 0 1010.9 1010.7 0.2
23/01:00am 24.4 29.4 22.5 89 1.3 CALM 0 0 0 0 1011.2 1011.0 0.2
23/12:30am 24.5 29.6 22.6 89 1.3 CALM 0 0 0 0 1011.4 1011.2 0.2
23/12:00am 24.3 29.1 22.2 88 1.4 CALM 0 0 0 0 1011.7 1011.5 0.2
 
Date/Time
WST
Temp
°C
App
Temp
°C
Dew
Point
°C
Rel
Hum
%
Delta-T
°C
Wind Press
QNH
hPa
Press
MSL
hPa
Rain since
9am
mm
Dir  Spd
km/h
Gust
km/h
Spd
kts
Gust
kts
22/11:30pm 24.5 29.4 22.4 88 1.4 CALM 0 0 0 0 1012.0 1011.8 0.2
22/11:00pm 24.9 30.1 22.8 88 1.4 CALM 0 0 0 0 1012.2 1012.0 0.2
22/10:30pm 24.9 29.8 22.4 86 1.7 CALM 0 0 0 0 1012.2 1012.0 0.2
22/10:00pm 25.2 30.4 22.9 87 1.6 CALM 0 0 0 0 1012.5 1012.3 0.2
22/09:30pm 25.6 30.9 23.1 86 1.7 CALM 0 0 0 0 1012.6 1012.4 0.2
22/09:00pm 25.8 31.2 23.3 86 1.7 CALM 0 0 0 0 1012.5 1012.3 0.2
22/08:30pm 25.9 31.2 23.0 84 2.0 CALM 0 0 0 0 1012.4 1012.2 0.2
22/08:00pm 26.0 31.4 23.3 85 1.8 CALM 0 0 0 0 1012.3 1012.1 0.2
22/07:30pm 26.2 31.4 22.9 82 2.2 CALM 0 0 0 0 1011.9 1011.7 0.2
22/07:00pm 26.5 31.2 22.6 79 2.6 N 2 6 1 3 1011.3 1011.1 0.2
22/06:30pm 27.5 31.1 22.0 72 3.7 N 6 7 3 4 1010.9 1010.7 0.2
22/06:00pm 28.5 31.9 22.0 68 4.4 N 7 9 4 5 1010.4 1010.2 0.2
22/05:30pm 29.4 32.4 21.9 64 5.1 N 9 13 5 7 1010.0 1009.8 0.2
22/05:00pm 30.4 32.4 21.5 59 6.0 N 13 20 7 11 1009.7 1009.5 0.2
22/04:30pm 31.5 33.4 21.4 55 6.8 N 13 19 7 10 1009.2 1009.0 0.2
22/04:00pm 32.5 33.9 21.0 50 7.7 NNW 15 22 8 12 1008.8 1008.6 0.2
22/03:30pm 32.9 34.2 21.7 51 7.6 N 17 22 9 12 1008.6 1008.4 0.2
22/03:00pm 32.1 32.2 20.0 48 8.0 N 19 28 10 15 1008.5 1008.3 0.2
22/02:30pm 35.7 38.7 21.2 43 9.8 NNE 7 19 4 10 1008.5 1008.3 0.2
22/02:00pm 35.7 37.5 19.6 39 10.7 NE 9 17 5 9 1008.7 1008.5 0.2
22/01:30pm 35.3 36.9 20.0 40 10.2 ENE 11 20 6 11 1009.2 1009.0 0.2
22/01:00pm 34.9 38.1 20.5 43 9.7 N 4 13 2 7 1009.6 1009.4 0.2
22/12:30pm 35.4 37.5 20.1 40 10.2 ENE 9 17 5 9 1010.0 1009.8 0.0
22/12:00pm 34.8 36.2 19.6 40 10.1 ENE 11 17 6 9 1010.3 1010.1 0.0
22/11:30am 33.8 36.5 20.6 46 8.8 ENE 7 13 4 7 1010.8 1010.6 0.0
22/11:00am 34.1 36.9 20.5 45 9.1 WNW 6 9 3 5 1011.4 1011.2 0.0
22/10:30am 33.3 36.3 20.8 48 8.4 W 6 13 3 7 1011.9 1011.7 0.0
22/10:00am 32.8 35.7 21.0 50 7.9 S 7 13 4 7 1012.3 1012.1 0.0
22/09:30am 31.9 34.3 20.8 51 7.4 S 9 13 5 7 1012.4 1012.2 0.0
22/09:00am 31.0 34.6 23.1 63 5.4 S 9 13 5 7 1012.6 1012.4 0.0
22/08:30am 29.8 33.5 23.3 68 4.5 S 9 13 5 7 1012.6 1012.4 0.0
22/08:00am 28.5 32.3 23.4 74 3.5 S 9 15 5 8 1012.7 1012.5 0.0
22/07:30am 27.7 31.8 23.3 77 3.0 S 7 13 4 7 1012.5 1012.3 0.0
22/07:00am 26.4 32.5 24.4 89 1.4 CALM 0 2 0 1 1012.5 1012.3 0.0
22/06:30am 24.2 29.3 22.6 91 1.1 CALM 0 0 0 0 1012.3 1012.1 0.0
22/06:00am 22.8 27.1 21.1 90 1.1 CALM 0 0 0 0 1012.1 1011.9 0.0
22/05:30am 22.8 27.1 21.1 90 1.1 CALM 0 0 0 0 1011.7 1011.5 0.0
22/05:00am 23.0 27.3 21.1 89 1.2 CALM 0 0 0 0 1011.4 1011.2 0.0
22/04:30am 23.0 27.3 21.1 89 1.2 CALM 0 0 0 0 1011.1 1010.9 0.0
22/04:00am 23.6 28.3 21.9 90 1.1 CALM 0 0 0 0 1011.0 1010.8 0.0
22/03:30am 23.4 27.9 21.5 89 1.3 CALM 0 0 0 0 1010.9 1010.7 0.0
22/03:00am 23.6 28.2 21.7 89 1.3 CALM 0 0 0 0 1011.0 1010.8 0.0
22/02:30am 23.8 28.6 22.1 90 1.1 CALM 0 0 0 0 1010.9 1010.7 0.0
22/02:00am 23.8 28.5 21.9 89 1.3 CALM 0 0 0 0 1011.1 1010.9 0.0
22/01:30am 23.9 28.6 22.0 89 1.3 CALM 0 0 0 0 1011.3 1011.1 0.0
22/01:00am 24.3 29.2 22.4 89 1.3 CALM 0 0 0 0 1011.6 1011.4 0.0
22/12:30am 24.2 29.0 22.1 88 1.4 CALM 0 0 0 0 1011.8 1011.6 0.0
22/12:00am 24.5 29.4 22.4 88 1.4 CALM 0 0 0 0 1012.3 1012.1 0.0
 
Date/Time
WST
Temp
°C
App
Temp
°C
Dew
Point
°C
Rel
Hum
%
Delta-T
°C
Wind Press
QNH
hPa
Press
MSL
hPa
Rain since
9am
mm
Dir  Spd
km/h
Gust
km/h
Spd
kts
Gust
kts
21/11:30pm 24.7 29.6 22.4 87 1.5 CALM 0 0 0 0 1012.4 1012.2 0.0
21/11:00pm 24.8 29.9 22.7 88 1.4 CALM 0 0 0 0 1012.5 1012.3 0.0
21/10:30pm 25.0 30.2 22.9 88 1.4 CALM 0 0 0 0 1012.7 1012.5 0.0
21/10:00pm 24.9 29.8 22.4 86 1.7 CALM 0 0 0 0 1012.7 1012.5 0.0
21/09:30pm 25.3 30.5 22.8 86 1.7 CALM 0 0 0 0 1012.9 1012.7 0.0
21/09:00pm 25.5 30.7 22.8 85 1.8 CALM 0 0 0 0 1013.1 1012.9 0.0
21/08:30pm 25.7 30.9 22.8 84 2.0 CALM 0 0 0 0 1013.0 1012.8 0.0
21/08:00pm 26.2 31.3 22.7 81 2.4 CALM 0 0 0 0 1012.6 1012.4 0.0
21/07:30pm 26.7 31.1 22.1 76 3.1 N 2 6 1 3 1012.4 1012.2 0.0
21/07:00pm 27.8 31.4 22.3 72 3.7 N 7 11 4 6 1011.9 1011.7 0.0
21/06:30pm 28.4 31.7 21.9 68 4.4 N 7 11 4 6 1011.5 1011.3 0.0
21/06:00pm 28.9 32.0 22.2 67 4.5 N 9 13 5 7 1011.2 1011.0 0.0
21/05:30pm 29.5 32.1 22.0 64 5.1 NNW 11 17 6 9 1011.0 1010.8 0.0
21/05:00pm 30.3 33.2 21.7 60 5.8 NNW 9 15 5 8 1010.4 1010.2 0.0
21/04:30pm 31.3 33.6 22.0 57 6.3 NNW 13 20 7 11 1010.0 1009.8 0.0
21/04:00pm 31.9 33.9 22.3 56 6.6 NNW 15 22 8 12 1009.9 1009.7 0.0
21/03:30pm 32.6 34.7 22.4 55 7.0 N 15 26 8 14 1009.5 1009.3 0.0
21/03:00pm 33.0 34.2 21.5 50 7.8 N 17 24 9 13 1009.3 1009.1 0.0
21/02:30pm 33.6 36.0 23.6 56 7.0 N 17 24 9 13 1009.3 1009.1 0.0
21/02:00pm 33.7 34.9 21.5 49 8.3 NNW 17 26 9 14 1009.4 1009.2 0.0
21/01:30pm 34.5 36.3 21.2 46 9.0 NNW 13 24 7 13 1009.5 1009.3 0.0

Other Formats:

Comma delimited format used in spreadsheet applications
http://www.bom.gov.au/fwo/IDW60801/IDW60801.94100.axf

JavaScript Object Notation format (JSON) in row-major order
http://www.bom.gov.au/fwo/IDW60801/IDW60801.94100.json